Weather history for 0402

Weather History For Prescott AZ

This page updates 5 minutes after midnight. GMT -7

Station: KPRC0 Rows: 26

Return to today's weather
Year Date Temp (°F) Tmin (°F) Tmax (°F) RH% Prcp Snow Wind Gust Pres Sun Cloud
2000 2000-04-02 46.6 28.0 63.0 47 11.8 29.98 1
2001 2001-04-02 55.6 46.9 63.0 45 20.3 29.68 0
2002 2002-04-02 60.6 42.8 75.2 21 12.0 29.82 0
2003 2003-04-02 53.1 44.6 57.2 28 26.7 29.74 0
2004 2004-04-02 43.9 39.2 48.2 85 14.9 0.00 7
2005 2005-04-02 51.6 30.9 68.0 34 0.0 10.8 29.98 0
2006 2006-04-02 50.0 33.1 66.9 43 0.0 8.5 30.05 0
2007 2007-04-02 60.1 43.0 73.0 20 0.0 13.3 29.87 1
2008 2008-04-02 51.3 35.1 64.9 27 0.3 16.8 29.88 0
2009 2009-04-02 51.3 34.0 66.0 29 0.0 13.5 29.78 0
2010 2010-04-02 43.5 30.0 55.9 33 0.0 9.9 29.93 0
2011 2011-04-02 64.0 46.9 75.9 29 0.0 16.7 29.76 1
2012 2012-04-02 43.7 35.1 55.0 29 0.0 26.0 29.81 0
2013 2013-04-02 51.4 36.0 66.0 35 0.0 13.2 29.88 1
2014 2014-04-02 42.1 33.1 51.1 49 16.8 29.76
2015 2015-04-02 56.1 46.0 66.9 21 0.0 17.9 29.84 0
2016 2016-04-02 51.4 33.1 66.9 28 0.0 7.7 30.13 0
2017 2017-04-02 51.4 35.1 66.0 50 15.0 29.89 1
2018 2018-04-02 57.6 41.0 71.1 22 0.0 14.0 29.71 0
2019 2019-04-02 54.3 41.0 66.0 28 0.0 17.0 29.83 1
2020 2020-04-02 54.7 44.1 64.0 35 0.0 20.4 29.76 0
2021 2021-04-02 62.6 52.0 73.0 35 9.4 29.90
2022 2022-04-02 55.9 39.9 70.0 40 0.0 11.5 29.91 0
2023 2023-04-02 51.4 35.1 66.0 31 0.0 17.5 29.90 0
2024 2024-04-02 46.6 32.0 62.1 60 0.0 8.1 30.14 1
2025 2025-04-02 38.7 33.1 44.1 52 15.9 29.64 3
Average Low 38.1
Average High 64.1

Daily High / Low by Year (04/02)

Barometric Pressure by Year (04/02)

Weather data provided by Meteostat